sensor_id;sensor_type;location;lat;lon;timestamp;P1;durP1;ratioP1;P2;durP2;ratioP2
20114;SDS011;10218;42.874;25.320;2023-12-28T00:02:09;23.40;;;10.97;;
20114;SDS011;10218;42.874;25.320;2023-12-28T00:04:36;32.20;;;15.63;;
20114;SDS011;10218;42.874;25.320;2023-12-28T00:07:04;21.97;;;12.90;;
20114;SDS011;10218;42.874;25.320;2023-12-28T00:09:31;21.07;;;12.50;;
20114;SDS011;10218;42.874;25.320;2023-12-28T00:11:58;24.93;;;12.13;;
20114;SDS011;10218;42.874;25.320;2023-12-28T00:14:26;21.13;;;11.57;;
20114;SDS011;10218;42.874;25.320;2023-12-28T00:16:53;19.33;;;11.50;;
20114;SDS011;10218;42.874;25.320;2023-12-28T00:19:21;21.87;;;11.43;;
20114;SDS011;10218;42.874;25.320;2023-12-28T00:21:49;24.13;;;11.57;;
20114;SDS011;10218;42.874;25.320;2023-12-28T00:24:19;13.97;;;7.03;;
20114;SDS011;10218;42.874;25.320;2023-12-28T00:26:47;10.70;;;6.20;;
20114;SDS011;10218;42.874;25.320;2023-12-28T00:29:14;12.00;;;5.50;;
20114;SDS011;10218;42.874;25.320;2023-12-28T00:31:41;9.97;;;5.63;;
20114;SDS011;10218;42.874;25.320;2023-12-28T00:34:09;12.20;;;5.37;;
20114;SDS011;10218;42.874;25.320;2023-12-28T00:36:37;10.67;;;5.43;;
20114;SDS011;10218;42.874;25.320;2023-12-28T00:39:05;10.53;;;5.87;;
20114;SDS011;10218;42.874;25.320;2023-12-28T00:41:33;17.00;;;8.63;;
20114;SDS011;10218;42.874;25.320;2023-12-28T00:44:00;20.27;;;10.83;;
20114;SDS011;10218;42.874;25.320;2023-12-28T00:46:28;19.57;;;10.50;;
20114;SDS011;10218;42.874;25.320;2023-12-28T00:48:57;15.10;;;9.20;;
20114;SDS011;10218;42.874;25.320;2023-12-28T00:51:24;15.20;;;8.40;;
20114;SDS011;10218;42.874;25.320;2023-12-28T00:53:51;13.53;;;7.80;;
20114;SDS011;10218;42.874;25.320;2023-12-28T00:56:19;14.10;;;8.33;;
20114;SDS011;10218;42.874;25.320;2023-12-28T00:58:47;13.50;;;6.63;;
20114;SDS011;10218;42.874;25.320;2023-12-28T01:01:15;14.53;;;6.87;;
20114;SDS011;10218;42.874;25.320;2023-12-28T01:03:42;9.77;;;5.53;;
20114;SDS011;10218;42.874;25.320;2023-12-28T01:06:10;9.03;;;4.63;;
20114;SDS011;10218;42.874;25.320;2023-12-28T01:08:38;11.03;;;5.60;;
20114;SDS011;10218;42.874;25.320;2023-12-28T01:11:05;13.67;;;6.37;;
20114;SDS011;10218;42.874;25.320;2023-12-28T01:13:33;24.80;;;6.23;;
20114;SDS011;10218;42.874;25.320;2023-12-28T01:16:04;13.63;;;6.43;;
20114;SDS011;10218;42.874;25.320;2023-12-28T01:18:33;15.87;;;7.57;;
20114;SDS011;10218;42.874;25.320;2023-12-28T01:21:00;18.67;;;9.13;;
20114;SDS011;10218;42.874;25.320;2023-12-28T01:23:28;16.20;;;8.70;;
20114;SDS011;10218;42.874;25.320;2023-12-28T01:25:55;13.97;;;7.87;;
20114;SDS011;10218;42.874;25.320;2023-12-28T01:28:23;17.07;;;8.73;;
20114;SDS011;10218;42.874;25.320;2023-12-28T01:30:50;12.03;;;6.17;;
20114;SDS011;10218;42.874;25.320;2023-12-28T01:33:18;14.70;;;8.77;;
20114;SDS011;10218;42.874;25.320;2023-12-28T01:35:45;18.67;;;9.10;;
20114;SDS011;10218;42.874;25.320;2023-12-28T01:38:13;16.13;;;9.70;;
20114;SDS011;10218;42.874;25.320;2023-12-28T01:40:44;22.63;;;9.53;;
20114;SDS011;10218;42.874;25.320;2023-12-28T01:43:12;19.83;;;8.53;;
20114;SDS011;10218;42.874;25.320;2023-12-28T01:45:41;14.93;;;8.27;;
20114;SDS011;10218;42.874;25.320;2023-12-28T01:48:08;16.23;;;8.90;;
20114;SDS011;10218;42.874;25.320;2023-12-28T01:50:36;17.13;;;8.70;;
20114;SDS011;10218;42.874;25.320;2023-12-28T01:53:04;17.23;;;9.27;;
20114;SDS011;10218;42.874;25.320;2023-12-28T01:55:32;18.17;;;9.37;;
20114;SDS011;10218;42.874;25.320;2023-12-28T01:58:01;15.90;;;7.90;;
20114;SDS011;10218;42.874;25.320;2023-12-28T02:00:30;14.43;;;8.00;;
20114;SDS011;10218;42.874;25.320;2023-12-28T02:02:58;15.00;;;8.20;;
20114;SDS011;10218;42.874;25.320;2023-12-28T02:05:27;12.50;;;7.27;;
20114;SDS011;10218;42.874;25.320;2023-12-28T02:07:55;13.13;;;7.47;;
20114;SDS011;10218;42.874;25.320;2023-12-28T02:10:23;13.80;;;8.00;;
20114;SDS011;10218;42.874;25.320;2023-12-28T02:12:51;12.47;;;7.73;;
20114;SDS011;10218;42.874;25.320;2023-12-28T02:15:21;13.70;;;7.73;;
20114;SDS011;10218;42.874;25.320;2023-12-28T02:17:59;18.33;;;8.13;;
20114;SDS011;10218;42.874;25.320;2023-12-28T02:20:29;15.03;;;7.70;;
20114;SDS011;10218;42.874;25.320;2023-12-28T02:22:58;14.63;;;7.83;;
20114;SDS011;10218;42.874;25.320;2023-12-28T02:25:25;14.93;;;7.80;;
20114;SDS011;10218;42.874;25.320;2023-12-28T02:27:53;12.63;;;6.80;;
20114;SDS011;10218;42.874;25.320;2023-12-28T02:30:22;14.17;;;6.03;;
20114;SDS011;10218;42.874;25.320;2023-12-28T02:32:52;9.13;;;4.40;;
20114;SDS011;10218;42.874;25.320;2023-12-28T02:35:32;9.03;;;4.37;;
20114;SDS011;10218;42.874;25.320;2023-12-28T02:38:02;7.97;;;3.80;;
20114;SDS011;10218;42.874;25.320;2023-12-28T02:40:35;6.87;;;3.50;;
20114;SDS011;10218;42.874;25.320;2023-12-28T02:43:08;6.33;;;3.83;;
20114;SDS011;10218;42.874;25.320;2023-12-28T02:45:37;6.40;;;4.10;;
20114;SDS011;10218;42.874;25.320;2023-12-28T02:48:06;6.87;;;4.10;;
20114;SDS011;10218;42.874;25.320;2023-12-28T02:50:34;9.07;;;4.80;;
20114;SDS011;10218;42.874;25.320;2023-12-28T02:53:02;9.03;;;5.20;;
20114;SDS011;10218;42.874;25.320;2023-12-28T02:55:29;9.13;;;5.00;;
20114;SDS011;10218;42.874;25.320;2023-12-28T02:57:58;9.67;;;5.07;;
20114;SDS011;10218;42.874;25.320;2023-12-28T03:00:27;10.67;;;4.40;;
20114;SDS011;10218;42.874;25.320;2023-12-28T03:02:54;7.77;;;4.57;;
20114;SDS011;10218;42.874;25.320;2023-12-28T03:05:21;9.80;;;5.47;;
20114;SDS011;10218;42.874;25.320;2023-12-28T03:07:48;11.70;;;6.00;;
20114;SDS011;10218;42.874;25.320;2023-12-28T03:10:17;11.20;;;6.40;;
20114;SDS011;10218;42.874;25.320;2023-12-28T03:12:44;10.87;;;6.77;;
20114;SDS011;10218;42.874;25.320;2023-12-28T03:15:12;10.03;;;5.40;;
20114;SDS011;10218;42.874;25.320;2023-12-28T03:17:39;12.67;;;5.20;;
20114;SDS011;10218;42.874;25.320;2023-12-28T03:20:07;13.53;;;5.40;;
20114;SDS011;10218;42.874;25.320;2023-12-28T03:22:36;10.17;;;5.40;;
20114;SDS011;10218;42.874;25.320;2023-12-28T03:25:04;10.13;;;5.47;;
20114;SDS011;10218;42.874;25.320;2023-12-28T03:27:32;10.40;;;5.37;;
20114;SDS011;10218;42.874;25.320;2023-12-28T03:29:59;9.57;;;4.83;;
20114;SDS011;10218;42.874;25.320;2023-12-28T03:32:26;9.83;;;4.20;;
20114;SDS011;10218;42.874;25.320;2023-12-28T03:34:54;8.03;;;3.83;;
20114;SDS011;10218;42.874;25.320;2023-12-28T03:37:21;10.83;;;4.27;;
20114;SDS011;10218;42.874;25.320;2023-12-28T03:39:49;10.80;;;4.87;;
20114;SDS011;10218;42.874;25.320;2023-12-28T03:42:16;9.27;;;4.97;;
20114;SDS011;10218;42.874;25.320;2023-12-28T03:44:43;8.70;;;4.77;;
20114;SDS011;10218;42.874;25.320;2023-12-28T03:47:11;13.50;;;7.40;;
20114;SDS011;10218;42.874;25.320;2023-12-28T03:49:38;11.13;;;5.40;;
20114;SDS011;10218;42.874;25.320;2023-12-28T03:52:06;9.93;;;4.50;;
20114;SDS011;10218;42.874;25.320;2023-12-28T03:54:34;8.43;;;4.30;;
20114;SDS011;10218;42.874;25.320;2023-12-28T03:57:01;11.17;;;4.20;;
20114;SDS011;10218;42.874;25.320;2023-12-28T03:59:29;10.03;;;4.73;;
20114;SDS011;10218;42.874;25.320;2023-12-28T04:01:57;8.27;;;4.80;;
20114;SDS011;10218;42.874;25.320;2023-12-28T04:04:25;9.37;;;4.70;;
20114;SDS011;10218;42.874;25.320;2023-12-28T04:06:52;12.70;;;5.57;;
20114;SDS011;10218;42.874;25.320;2023-12-28T04:09:19;10.47;;;5.77;;
20114;SDS011;10218;42.874;25.320;2023-12-28T04:11:46;10.23;;;5.83;;
20114;SDS011;10218;42.874;25.320;2023-12-28T04:14:14;13.13;;;6.00;;
20114;SDS011;10218;42.874;25.320;2023-12-28T04:16:41;7.87;;;5.07;;
20114;SDS011;10218;42.874;25.320;2023-12-28T04:19:08;11.23;;;6.13;;
20114;SDS011;10218;42.874;25.320;2023-12-28T04:21:35;15.77;;;7.63;;
20114;SDS011;10218;42.874;25.320;2023-12-28T04:24:03;19.33;;;9.53;;
20114;SDS011;10218;42.874;25.320;2023-12-28T04:26:31;19.77;;;9.97;;
20114;SDS011;10218;42.874;25.320;2023-12-28T04:29:00;19.23;;;10.27;;
20114;SDS011;10218;42.874;25.320;2023-12-28T04:31:27;19.57;;;10.13;;
20114;SDS011;10218;42.874;25.320;2023-12-28T04:33:55;18.60;;;10.13;;
20114;SDS011;10218;42.874;25.320;2023-12-28T04:36:22;18.27;;;9.93;;
20114;SDS011;10218;42.874;25.320;2023-12-28T04:38:49;18.93;;;10.20;;
20114;SDS011;10218;42.874;25.320;2023-12-28T04:41:17;15.20;;;8.83;;
20114;SDS011;10218;42.874;25.320;2023-12-28T04:43:44;19.17;;;10.07;;
20114;SDS011;10218;42.874;25.320;2023-12-28T04:46:11;17.87;;;9.90;;
20114;SDS011;10218;42.874;25.320;2023-12-28T04:48:39;23.70;;;10.90;;
20114;SDS011;10218;42.874;25.320;2023-12-28T04:51:07;19.37;;;11.27;;
20114;SDS011;10218;42.874;25.320;2023-12-28T04:53:34;21.63;;;11.90;;
20114;SDS011;10218;42.874;25.320;2023-12-28T04:56:02;19.20;;;11.07;;
20114;SDS011;10218;42.874;25.320;2023-12-28T04:58:29;19.47;;;9.50;;
20114;SDS011;10218;42.874;25.320;2023-12-28T05:00:56;17.40;;;10.83;;
20114;SDS011;10218;42.874;25.320;2023-12-28T05:03:24;23.63;;;11.87;;
20114;SDS011;10218;42.874;25.320;2023-12-28T05:05:51;20.10;;;11.03;;
20114;SDS011;10218;42.874;25.320;2023-12-28T05:08:19;20.77;;;10.33;;
20114;SDS011;10218;42.874;25.320;2023-12-28T05:10:46;17.93;;;10.57;;
20114;SDS011;10218;42.874;25.320;2023-12-28T05:13:13;19.27;;;10.37;;
20114;SDS011;10218;42.874;25.320;2023-12-28T05:15:41;18.87;;;10.00;;
20114;SDS011;10218;42.874;25.320;2023-12-28T05:18:08;18.50;;;9.90;;
20114;SDS011;10218;42.874;25.320;2023-12-28T05:20:35;17.70;;;10.40;;
20114;SDS011;10218;42.874;25.320;2023-12-28T05:23:03;15.00;;;8.87;;
20114;SDS011;10218;42.874;25.320;2023-12-28T05:25:30;20.67;;;9.60;;
20114;SDS011;10218;42.874;25.320;2023-12-28T05:27:59;20.67;;;10.90;;
20114;SDS011;10218;42.874;25.320;2023-12-28T05:30:26;17.03;;;9.80;;
20114;SDS011;10218;42.874;25.320;2023-12-28T05:32:53;16.10;;;8.17;;
20114;SDS011;10218;42.874;25.320;2023-12-28T05:35:20;17.67;;;9.50;;
20114;SDS011;10218;42.874;25.320;2023-12-28T05:37:47;19.27;;;11.17;;
20114;SDS011;10218;42.874;25.320;2023-12-28T05:40:15;12.07;;;7.57;;
20114;SDS011;10218;42.874;25.320;2023-12-28T05:42:42;16.83;;;8.20;;
20114;SDS011;10218;42.874;25.320;2023-12-28T05:45:09;10.90;;;6.57;;
20114;SDS011;10218;42.874;25.320;2023-12-28T05:47:37;12.07;;;6.53;;
20114;SDS011;10218;42.874;25.320;2023-12-28T05:50:04;14.67;;;7.60;;
20114;SDS011;10218;42.874;25.320;2023-12-28T05:52:32;15.43;;;7.97;;
20114;SDS011;10218;42.874;25.320;2023-12-28T05:55:00;20.07;;;9.53;;
20114;SDS011;10218;42.874;25.320;2023-12-28T05:57:27;15.50;;;8.37;;
20114;SDS011;10218;42.874;25.320;2023-12-28T05:59:59;11.67;;;6.33;;
20114;SDS011;10218;42.874;25.320;2023-12-28T06:02:27;15.17;;;7.63;;
20114;SDS011;10218;42.874;25.320;2023-12-28T06:04:55;13.63;;;6.63;;
20114;SDS011;10218;42.874;25.320;2023-12-28T06:07:23;12.57;;;7.53;;
20114;SDS011;10218;42.874;25.320;2023-12-28T06:09:50;16.27;;;7.00;;
20114;SDS011;10218;42.874;25.320;2023-12-28T06:12:18;10.43;;;6.20;;
20114;SDS011;10218;42.874;25.320;2023-12-28T06:14:45;11.23;;;7.30;;
20114;SDS011;10218;42.874;25.320;2023-12-28T06:17:12;15.40;;;9.03;;
20114;SDS011;10218;42.874;25.320;2023-12-28T06:19:42;25.33;;;14.13;;
20114;SDS011;10218;42.874;25.320;2023-12-28T06:22:09;31.80;;;16.90;;
20114;SDS011;10218;42.874;25.320;2023-12-28T06:24:39;31.17;;;16.83;;
20114;SDS011;10218;42.874;25.320;2023-12-28T06:27:07;36.93;;;18.17;;
20114;SDS011;10218;42.874;25.320;2023-12-28T06:29:34;28.93;;;16.47;;
20114;SDS011;10218;42.874;25.320;2023-12-28T06:32:01;40.70;;;18.60;;
20114;SDS011;10218;42.874;25.320;2023-12-28T06:34:28;34.87;;;18.00;;
20114;SDS011;10218;42.874;25.320;2023-12-28T06:36:56;35.63;;;18.93;;
20114;SDS011;10218;42.874;25.320;2023-12-28T06:39:23;35.83;;;20.47;;
20114;SDS011;10218;42.874;25.320;2023-12-28T06:41:50;39.27;;;20.43;;
20114;SDS011;10218;42.874;25.320;2023-12-28T06:44:18;44.00;;;22.97;;
20114;SDS011;10218;42.874;25.320;2023-12-28T06:46:45;38.10;;;22.27;;
20114;SDS011;10218;42.874;25.320;2023-12-28T06:49:13;42.13;;;23.83;;
20114;SDS011;10218;42.874;25.320;2023-12-28T06:51:40;50.17;;;24.23;;
20114;SDS011;10218;42.874;25.320;2023-12-28T06:54:09;39.30;;;22.20;;
20114;SDS011;10218;42.874;25.320;2023-12-28T06:56:36;43.80;;;22.50;;
20114;SDS011;10218;42.874;25.320;2023-12-28T06:59:03;42.37;;;24.53;;
20114;SDS011;10218;42.874;25.320;2023-12-28T07:01:30;42.93;;;24.93;;
20114;SDS011;10218;42.874;25.320;2023-12-28T07:03:58;42.20;;;23.30;;
20114;SDS011;10218;42.874;25.320;2023-12-28T07:06:26;35.30;;;19.57;;
20114;SDS011;10218;42.874;25.320;2023-12-28T07:08:56;39.33;;;20.63;;
20114;SDS011;10218;42.874;25.320;2023-12-28T07:11:23;43.60;;;22.67;;
20114;SDS011;10218;42.874;25.320;2023-12-28T07:13:50;37.97;;;21.07;;
20114;SDS011;10218;42.874;25.320;2023-12-28T07:16:17;43.10;;;23.20;;
20114;SDS011;10218;42.874;25.320;2023-12-28T07:18:47;43.33;;;23.93;;
20114;SDS011;10218;42.874;25.320;2023-12-28T07:21:18;39.87;;;22.33;;
20114;SDS011;10218;42.874;25.320;2023-12-28T07:23:45;42.27;;;22.97;;
20114;SDS011;10218;42.874;25.320;2023-12-28T07:26:16;40.93;;;20.63;;
20114;SDS011;10218;42.874;25.320;2023-12-28T07:28:44;38.20;;;18.57;;
20114;SDS011;10218;42.874;25.320;2023-12-28T07:31:24;34.67;;;19.33;;
20114;SDS011;10218;42.874;25.320;2023-12-28T07:33:51;35.03;;;19.67;;
20114;SDS011;10218;42.874;25.320;2023-12-28T07:36:19;33.67;;;18.10;;
20114;SDS011;10218;42.874;25.320;2023-12-28T07:38:47;37.70;;;20.13;;
20114;SDS011;10218;42.874;25.320;2023-12-28T07:41:14;37.67;;;18.80;;
20114;SDS011;10218;42.874;25.320;2023-12-28T07:43:42;33.70;;;18.53;;
20114;SDS011;10218;42.874;25.320;2023-12-28T07:46:09;39.73;;;21.93;;
20114;SDS011;10218;42.874;25.320;2023-12-28T07:48:36;44.77;;;26.47;;
20114;SDS011;10218;42.874;25.320;2023-12-28T07:51:04;48.00;;;32.23;;
20114;SDS011;10218;42.874;25.320;2023-12-28T07:53:32;48.70;;;28.33;;
20114;SDS011;10218;42.874;25.320;2023-12-28T07:56:00;39.23;;;24.37;;
20114;SDS011;10218;42.874;25.320;2023-12-28T07:58:28;33.37;;;21.33;;
20114;SDS011;10218;42.874;25.320;2023-12-28T08:00:55;36.80;;;19.87;;
20114;SDS011;10218;42.874;25.320;2023-12-28T08:03:23;27.57;;;18.43;;
20114;SDS011;10218;42.874;25.320;2023-12-28T08:05:50;34.43;;;21.70;;
20114;SDS011;10218;42.874;25.320;2023-12-28T08:08:17;42.10;;;26.53;;
20114;SDS011;10218;42.874;25.320;2023-12-28T08:10:45;50.97;;;30.47;;
20114;SDS011;10218;42.874;25.320;2023-12-28T08:13:12;48.63;;;32.83;;
20114;SDS011;10218;42.874;25.320;2023-12-28T08:15:39;45.50;;;28.33;;
20114;SDS011;10218;42.874;25.320;2023-12-28T08:18:07;54.97;;;35.77;;
20114;SDS011;10218;42.874;25.320;2023-12-28T08:20:34;42.30;;;28.23;;
20114;SDS011;10218;42.874;25.320;2023-12-28T08:23:04;48.27;;;31.50;;
20114;SDS011;10218;42.874;25.320;2023-12-28T08:25:31;48.73;;;33.33;;
20114;SDS011;10218;42.874;25.320;2023-12-28T08:28:00;37.03;;;25.23;;
20114;SDS011;10218;42.874;25.320;2023-12-28T08:30:27;46.73;;;30.80;;
20114;SDS011;10218;42.874;25.320;2023-12-28T08:32:54;47.77;;;31.47;;
20114;SDS011;10218;42.874;25.320;2023-12-28T08:35:21;75.23;;;45.00;;
20114;SDS011;10218;42.874;25.320;2023-12-28T08:37:48;46.10;;;30.20;;
20114;SDS011;10218;42.874;25.320;2023-12-28T08:40:17;53.77;;;29.60;;
20114;SDS011;10218;42.874;25.320;2023-12-28T08:42:47;38.33;;;26.87;;
20114;SDS011;10218;42.874;25.320;2023-12-28T08:45:14;37.40;;;22.37;;
20114;SDS011;10218;42.874;25.320;2023-12-28T08:47:41;31.33;;;20.87;;
20114;SDS011;10218;42.874;25.320;2023-12-28T08:50:09;37.07;;;26.23;;
20114;SDS011;10218;42.874;25.320;2023-12-28T08:52:36;41.50;;;26.80;;
20114;SDS011;10218;42.874;25.320;2023-12-28T08:55:04;32.33;;;23.07;;
20114;SDS011;10218;42.874;25.320;2023-12-28T08:57:32;28.43;;;19.37;;
20114;SDS011;10218;42.874;25.320;2023-12-28T09:00:01;25.07;;;15.80;;
20114;SDS011;10218;42.874;25.320;2023-12-28T09:02:29;30.40;;;21.57;;
20114;SDS011;10218;42.874;25.320;2023-12-28T09:05:00;25.23;;;16.30;;
20114;SDS011;10218;42.874;25.320;2023-12-28T09:07:27;26.87;;;17.77;;
20114;SDS011;10218;42.874;25.320;2023-12-28T09:09:55;31.87;;;22.13;;
20114;SDS011;10218;42.874;25.320;2023-12-28T09:12:22;32.70;;;22.00;;
20114;SDS011;10218;42.874;25.320;2023-12-28T09:14:49;38.13;;;24.60;;
20114;SDS011;10218;42.874;25.320;2023-12-28T09:17:23;40.07;;;28.77;;
20114;SDS011;10218;42.874;25.320;2023-12-28T09:19:50;34.57;;;27.20;;
20114;SDS011;10218;42.874;25.320;2023-12-28T09:22:17;33.60;;;24.50;;
20114;SDS011;10218;42.874;25.320;2023-12-28T09:24:45;26.53;;;20.57;;
20114;SDS011;10218;42.874;25.320;2023-12-28T09:27:12;31.97;;;21.97;;
20114;SDS011;10218;42.874;25.320;2023-12-28T09:29:39;39.57;;;28.43;;
20114;SDS011;10218;42.874;25.320;2023-12-28T09:32:06;38.37;;;23.10;;
20114;SDS011;10218;42.874;25.320;2023-12-28T09:34:33;30.17;;;22.17;;
20114;SDS011;10218;42.874;25.320;2023-12-28T09:37:00;33.40;;;22.47;;
20114;SDS011;10218;42.874;25.320;2023-12-28T09:39:28;33.67;;;20.70;;
20114;SDS011;10218;42.874;25.320;2023-12-28T09:41:59;24.17;;;16.30;;
20114;SDS011;10218;42.874;25.320;2023-12-28T09:44:30;24.20;;;16.20;;
20114;SDS011;10218;42.874;25.320;2023-12-28T09:47:01;22.63;;;14.03;;
20114;SDS011;10218;42.874;25.320;2023-12-28T09:49:28;18.70;;;10.73;;
20114;SDS011;10218;42.874;25.320;2023-12-28T09:51:58;15.50;;;8.57;;
20114;SDS011;10218;42.874;25.320;2023-12-28T09:54:25;10.47;;;6.70;;
20114;SDS011;10218;42.874;25.320;2023-12-28T09:56:52;11.93;;;6.20;;
20114;SDS011;10218;42.874;25.320;2023-12-28T09:59:20;12.13;;;7.17;;
20114;SDS011;10218;42.874;25.320;2023-12-28T10:01:48;11.23;;;6.80;;
20114;SDS011;10218;42.874;25.320;2023-12-28T10:04:16;10.67;;;7.33;;
20114;SDS011;10218;42.874;25.320;2023-12-28T10:06:43;10.80;;;7.20;;
20114;SDS011;10218;42.874;25.320;2023-12-28T10:09:10;10.80;;;7.40;;
20114;SDS011;10218;42.874;25.320;2023-12-28T10:11:38;16.70;;;9.50;;
20114;SDS011;10218;42.874;25.320;2023-12-28T10:14:05;20.17;;;9.70;;
20114;SDS011;10218;42.874;25.320;2023-12-28T10:16:34;21.10;;;11.17;;
20114;SDS011;10218;42.874;25.320;2023-12-28T10:19:01;21.07;;;11.00;;
20114;SDS011;10218;42.874;25.320;2023-12-28T10:21:28;13.70;;;9.60;;
20114;SDS011;10218;42.874;25.320;2023-12-28T10:23:55;17.57;;;9.30;;
20114;SDS011;10218;42.874;25.320;2023-12-28T10:26:23;16.27;;;9.63;;
20114;SDS011;10218;42.874;25.320;2023-12-28T10:28:56;15.27;;;9.47;;
20114;SDS011;10218;42.874;25.320;2023-12-28T10:31:30;15.33;;;9.67;;
20114;SDS011;10218;42.874;25.320;2023-12-28T10:33:57;14.20;;;9.57;;
20114;SDS011;10218;42.874;25.320;2023-12-28T10:36:26;16.63;;;9.30;;
20114;SDS011;10218;42.874;25.320;2023-12-28T10:38:54;13.20;;;8.50;;
20114;SDS011;10218;42.874;25.320;2023-12-28T10:41:31;16.23;;;9.27;;
20114;SDS011;10218;42.874;25.320;2023-12-28T10:44:03;12.80;;;8.13;;
20114;SDS011;10218;42.874;25.320;2023-12-28T10:46:33;14.40;;;8.67;;
20114;SDS011;10218;42.874;25.320;2023-12-28T10:49:09;13.70;;;8.13;;
20114;SDS011;10218;42.874;25.320;2023-12-28T10:51:43;14.90;;;8.20;;
20114;SDS011;10218;42.874;25.320;2023-12-28T10:57:04;13.27;;;9.00;;
20114;SDS011;10218;42.874;25.320;2023-12-28T10:59:44;16.60;;;10.17;;
20114;SDS011;10218;42.874;25.320;2023-12-28T11:02:19;13.00;;;8.90;;
20114;SDS011;10218;42.874;25.320;2023-12-28T11:04:51;18.33;;;9.00;;
20114;SDS011;10218;42.874;25.320;2023-12-28T11:07:20;17.03;;;9.97;;
20114;SDS011;10218;42.874;25.320;2023-12-28T11:09:47;19.10;;;10.70;;
20114;SDS011;10218;42.874;25.320;2023-12-28T11:12:16;18.50;;;10.07;;
20114;SDS011;10218;42.874;25.320;2023-12-28T11:14:46;19.33;;;11.73;;
20114;SDS011;10218;42.874;25.320;2023-12-28T11:17:15;19.87;;;9.57;;
20114;SDS011;10218;42.874;25.320;2023-12-28T11:19:43;18.15;;;9.52;;
20114;SDS011;10218;42.874;25.320;2023-12-28T11:22:11;19.60;;;9.00;;
20114;SDS011;10218;42.874;25.320;2023-12-28T11:24:39;14.55;;;9.15;;
20114;SDS011;10218;42.874;25.320;2023-12-28T11:27:06;13.40;;;9.52;;
20114;SDS011;10218;42.874;25.320;2023-12-28T11:29:35;16.90;;;9.48;;
20114;SDS011;10218;42.874;25.320;2023-12-28T11:32:02;15.65;;;10.40;;
20114;SDS011;10218;42.874;25.320;2023-12-28T11:34:33;21.27;;;10.75;;
20114;SDS011;10218;42.874;25.320;2023-12-28T11:37:03;22.77;;;10.95;;
20114;SDS011;10218;42.874;25.320;2023-12-28T11:39:34;17.10;;;11.27;;
20114;SDS011;10218;42.874;25.320;2023-12-28T11:42:03;19.33;;;10.90;;
20114;SDS011;10218;42.874;25.320;2023-12-28T11:47:12;19.02;;;10.48;;
20114;SDS011;10218;42.874;25.320;2023-12-28T11:49:41;21.12;;;13.30;;
20114;SDS011;10218;42.874;25.320;2023-12-28T11:52:08;20.83;;;11.10;;
20114;SDS011;10218;42.874;25.320;2023-12-28T11:54:37;19.10;;;9.95;;
20114;SDS011;10218;42.874;25.320;2023-12-28T11:57:05;20.55;;;10.13;;
20114;SDS011;10218;42.874;25.320;2023-12-28T11:59:32;13.05;;;8.70;;
20114;SDS011;10218;42.874;25.320;2023-12-28T12:01:59;13.62;;;7.12;;
20114;SDS011;10218;42.874;25.320;2023-12-28T12:04:26;9.68;;;6.37;;
20114;SDS011;10218;42.874;25.320;2023-12-28T12:06:53;12.00;;;6.22;;
20114;SDS011;10218;42.874;25.320;2023-12-28T12:09:20;12.02;;;5.45;;
20114;SDS011;10218;42.874;25.320;2023-12-28T12:11:49;10.38;;;5.22;;
20114;SDS011;10218;42.874;25.320;2023-12-28T12:14:18;9.02;;;5.85;;
20114;SDS011;10218;42.874;25.320;2023-12-28T12:16:45;10.77;;;5.80;;
20114;SDS011;10218;42.874;25.320;2023-12-28T12:19:13;10.68;;;5.43;;
20114;SDS011;10218;42.874;25.320;2023-12-28T12:21:40;9.07;;;4.28;;
20114;SDS011;10218;42.874;25.320;2023-12-28T12:24:09;6.97;;;4.57;;
20114;SDS011;10218;42.874;25.320;2023-12-28T12:26:37;8.35;;;4.90;;
20114;SDS011;10218;42.874;25.320;2023-12-28T12:29:07;10.70;;;5.20;;
20114;SDS011;10218;42.874;25.320;2023-12-28T12:31:34;9.13;;;5.85;;
20114;SDS011;10218;42.874;25.320;2023-12-28T12:34:04;8.93;;;5.97;;
20114;SDS011;10218;42.874;25.320;2023-12-28T12:36:32;10.43;;;6.55;;
20114;SDS011;10218;42.874;25.320;2023-12-28T12:38:59;9.73;;;6.07;;
20114;SDS011;10218;42.874;25.320;2023-12-28T12:41:27;15.63;;;7.00;;
20114;SDS011;10218;42.874;25.320;2023-12-28T12:43:54;11.40;;;5.95;;
20114;SDS011;10218;42.874;25.320;2023-12-28T12:46:23;19.42;;;5.72;;
20114;SDS011;10218;42.874;25.320;2023-12-28T12:48:55;15.75;;;6.50;;
20114;SDS011;10218;42.874;25.320;2023-12-28T12:51:26;7.82;;;5.97;;
20114;SDS011;10218;42.874;25.320;2023-12-28T12:53:57;9.32;;;5.90;;
20114;SDS011;10218;42.874;25.320;2023-12-28T12:56:25;12.35;;;6.32;;
20114;SDS011;10218;42.874;25.320;2023-12-28T12:58:54;14.77;;;7.80;;
20114;SDS011;10218;42.874;25.320;2023-12-28T13:01:22;12.60;;;8.37;;
20114;SDS011;10218;42.874;25.320;2023-12-28T13:03:50;11.57;;;8.20;;
20114;SDS011;10218;42.874;25.320;2023-12-28T13:06:18;14.27;;;8.40;;
20114;SDS011;10218;42.874;25.320;2023-12-28T13:08:49;10.87;;;6.90;;
20114;SDS011;10218;42.874;25.320;2023-12-28T13:11:22;11.57;;;7.43;;
20114;SDS011;10218;42.874;25.320;2023-12-28T13:13:53;12.57;;;6.50;;
20114;SDS011;10218;42.874;25.320;2023-12-28T13:16:20;13.10;;;7.37;;
20114;SDS011;10218;42.874;25.320;2023-12-28T13:18:47;13.73;;;7.90;;
20114;SDS011;10218;42.874;25.320;2023-12-28T13:21:14;12.70;;;8.00;;
20114;SDS011;10218;42.874;25.320;2023-12-28T13:23:41;14.80;;;7.80;;
20114;SDS011;10218;42.874;25.320;2023-12-28T13:26:09;12.87;;;7.73;;
20114;SDS011;10218;42.874;25.320;2023-12-28T13:28:37;12.57;;;7.33;;
20114;SDS011;10218;42.874;25.320;2023-12-28T13:31:04;14.33;;;7.67;;
20114;SDS011;10218;42.874;25.320;2023-12-28T13:33:32;13.17;;;7.47;;
20114;SDS011;10218;42.874;25.320;2023-12-28T13:35:59;13.47;;;6.90;;
20114;SDS011;10218;42.874;25.320;2023-12-28T13:38:26;11.33;;;6.50;;
20114;SDS011;10218;42.874;25.320;2023-12-28T13:40:54;13.83;;;6.80;;
20114;SDS011;10218;42.874;25.320;2023-12-28T13:43:22;15.30;;;8.03;;
20114;SDS011;10218;42.874;25.320;2023-12-28T13:45:49;22.87;;;10.67;;
20114;SDS011;10218;42.874;25.320;2023-12-28T13:48:17;23.90;;;11.70;;
20114;SDS011;10218;42.874;25.320;2023-12-28T13:50:44;34.37;;;16.43;;
20114;SDS011;10218;42.874;25.320;2023-12-28T13:53:11;40.37;;;18.47;;
20114;SDS011;10218;42.874;25.320;2023-12-28T13:55:38;41.97;;;20.13;;
20114;SDS011;10218;42.874;25.320;2023-12-28T13:58:05;41.70;;;20.10;;
20114;SDS011;10218;42.874;25.320;2023-12-28T14:00:32;36.70;;;17.70;;
20114;SDS011;10218;42.874;25.320;2023-12-28T14:03:00;34.70;;;16.43;;
20114;SDS011;10218;42.874;25.320;2023-12-28T14:05:27;27.87;;;15.47;;
20114;SDS011;10218;42.874;25.320;2023-12-28T14:07:55;62.20;;;23.33;;
20114;SDS011;10218;42.874;25.320;2023-12-28T14:10:22;67.57;;;26.73;;
20114;SDS011;10218;42.874;25.320;2023-12-28T14:12:49;65.17;;;26.30;;
20114;SDS011;10218;42.874;25.320;2023-12-28T14:15:16;70.73;;;38.13;;
20114;SDS011;10218;42.874;25.320;2023-12-28T14:17:44;70.73;;;36.13;;
20114;SDS011;10218;42.874;25.320;2023-12-28T14:20:11;68.93;;;31.80;;
20114;SDS011;10218;42.874;25.320;2023-12-28T14:22:38;68.20;;;32.90;;
20114;SDS011;10218;42.874;25.320;2023-12-28T14:25:06;118.63;;;37.37;;
20114;SDS011;10218;42.874;25.320;2023-12-28T14:27:33;63.00;;;32.87;;
20114;SDS011;10218;42.874;25.320;2023-12-28T14:30:01;70.93;;;37.33;;